createdAt,value
2022-12-18T00:00:03.406Z,101794.34
2022-12-18T00:05:16.616Z,101792.66
2022-12-18T00:10:22.177Z,101800.38
2022-12-18T00:15:26.393Z,101787.41
2022-12-18T00:20:29.533Z,101794.31
2022-12-18T00:25:34.872Z,101799.53
2022-12-18T00:30:39.145Z,101810.03
2022-12-18T00:35:42.044Z,101823.09
2022-12-18T00:40:46.650Z,101804.00
2022-12-18T00:45:50.973Z,101798.59
2022-12-18T00:50:54.098Z,101800.25
2022-12-18T00:55:57.163Z,101793.47
2022-12-18T01:01:01.561Z,101794.16
2022-12-18T01:06:08.183Z,101789.72
2022-12-18T01:11:13.083Z,101795.97
2022-12-18T01:16:20.117Z,101792.31
2022-12-18T01:21:24.539Z,101794.09
2022-12-18T01:26:30.399Z,101791.22
2022-12-18T01:31:36.308Z,101790.56
2022-12-18T01:36:40.922Z,101793.09
2022-12-18T01:42:02.229Z,101799.97
2022-12-18T01:47:06.971Z,101803.47
2022-12-18T01:52:09.991Z,101812.16
2022-12-18T01:57:13.511Z,101805.19
2022-12-18T02:02:19.102Z,101797.31
2022-12-18T02:07:33.517Z,101789.47
2022-12-18T02:12:47.118Z,101805.97
2022-12-18T02:17:57.311Z,101795.53
2022-12-18T02:23:11.852Z,101806.88
2022-12-18T02:28:18.798Z,101805.06
2022-12-18T02:33:28.261Z,101804.97
2022-12-18T02:38:34.786Z,101794.63
2022-12-18T02:43:52.463Z,101778.22
2022-12-18T02:49:03.539Z,101788.81
2022-12-18T02:54:15.792Z,101796.59
2022-12-18T02:59:26.500Z,101797.38
2022-12-18T03:04:40.373Z,101793.88
2022-12-18T03:09:50.514Z,101796.50
2022-12-18T03:15:00.474Z,101817.38
2022-12-18T03:20:09.541Z,101805.03
2022-12-18T03:25:16.806Z,101792.91
2022-12-18T03:30:21.597Z,101799.75
2022-12-18T03:35:30.628Z,101798.03
2022-12-18T03:40:47.122Z,101789.34
2022-12-18T03:46:00.474Z,101782.38
2022-12-18T03:51:10.264Z,101807.84
2022-12-18T03:56:15.889Z,101801.06
2022-12-18T04:01:26.090Z,101801.97
2022-12-18T04:06:31.387Z,101799.28
2022-12-18T04:11:34.459Z,101797.50
2022-12-18T04:16:41.416Z,101795.56
2022-12-18T04:21:51.242Z,101796.25
2022-12-18T04:26:54.454Z,101801.41
2022-12-18T04:32:05.193Z,101808.50
2022-12-18T04:37:09.494Z,101811.13
2022-12-18T04:42:12.510Z,101812.00
2022-12-18T04:47:16.728Z,101814.47
2022-12-18T04:52:19.562Z,101811.09
2022-12-18T04:57:22.393Z,101810.28
2022-12-18T05:02:26.690Z,101812.03
2022-12-18T05:07:29.569Z,101812.06
2022-12-18T05:12:33.698Z,101808.53
2022-12-18T05:17:37.911Z,101800.59
2022-12-18T05:22:40.740Z,101799.69
2022-12-18T05:27:43.736Z,101785.59
2022-12-18T05:32:47.914Z,101790.78
2022-12-18T05:37:50.744Z,101796.72
2022-12-18T05:42:53.586Z,101794.16
2022-12-18T05:47:57.989Z,101797.59
2022-12-18T05:53:00.845Z,101789.84
2022-12-18T05:58:04.128Z,101792.44
2022-12-18T06:03:08.994Z,101790.91
2022-12-18T06:08:12.710Z,101794.38
2022-12-18T06:13:15.546Z,101799.56
2022-12-18T06:18:19.663Z,101813.53
2022-12-18T06:23:22.468Z,101807.38
2022-12-18T06:28:25.316Z,101816.84
2022-12-18T06:33:30.293Z,101816.84
2022-12-18T06:38:33.718Z,101822.16
2022-12-18T06:43:37.016Z,101823.94
2022-12-18T06:48:41.796Z,101832.72
2022-12-18T06:53:44.610Z,101850.13
2022-12-18T06:58:47.474Z,101850.09
2022-12-18T07:03:55.739Z,101841.41
2022-12-18T07:08:58.653Z,101851.00
2022-12-18T07:14:01.687Z,101866.53
2022-12-18T07:19:05.853Z,101857.88
2022-12-18T07:24:09.429Z,101853.44
2022-12-18T07:29:12.230Z,101835.25
2022-12-18T07:34:17.059Z,101833.28
2022-12-18T07:39:19.888Z,101821.28
2022-12-18T07:44:22.755Z,101826.38
2022-12-18T07:49:27.022Z,101836.13
2022-12-18T07:54:30.441Z,101835.44
2022-12-18T07:59:33.263Z,101828.78
2022-12-18T08:04:37.523Z,101839.28
2022-12-18T08:09:40.327Z,101840.13
2022-12-18T08:14:43.198Z,101839.41
2022-12-18T08:19:47.391Z,101826.38
2022-12-18T08:24:50.186Z,101814.28
2022-12-18T08:29:53.185Z,101808.19
2022-12-18T08:34:57.471Z,101791.72
2022-12-18T08:40:00.297Z,101794.44
2022-12-18T08:45:03.224Z,101797.16
2022-12-18T08:50:08.247Z,101798.06
2022-12-18T08:55:11.746Z,101807.69
2022-12-18T09:00:15.764Z,101794.56
2022-12-18T09:05:20.975Z,101797.19
2022-12-18T09:10:24.157Z,101800.66
2022-12-18T09:15:27.128Z,101796.31
2022-12-18T09:20:31.400Z,101797.19
2022-12-18T09:25:36.785Z,101790.16
2022-12-18T09:30:40.099Z,101791.88
2022-12-18T09:35:45.911Z,101792.81
2022-12-18T09:40:51.190Z,101797.19
2022-12-18T09:45:57.376Z,101797.97
2022-12-18T09:51:05.805Z,101801.28
2022-12-18T09:56:14.384Z,101799.06
2022-12-18T10:01:22.224Z,101779.97
2022-12-18T10:06:40.033Z,101781.69
2022-12-18T10:11:50.109Z,101803.44
2022-12-18T10:17:01.879Z,101797.28
2022-12-18T10:22:18.421Z,101782.56
2022-12-18T10:27:28.009Z,101763.19
2022-12-18T10:32:32.157Z,101731.50
2022-12-18T10:37:36.439Z,101718.41
2022-12-18T10:42:40.665Z,101695.19
2022-12-18T10:47:45.707Z,101707.22
2022-12-18T10:52:57.359Z,101706.91
2022-12-18T10:58:22.185Z,101714.91
2022-12-18T11:03:34.056Z,101709.78
2022-12-18T11:08:39.303Z,101692.13
2022-12-18T11:13:42.586Z,101671.69
2022-12-18T11:18:45.462Z,101669.91
2022-12-18T11:23:52.868Z,101648.34
2022-12-18T11:29:11.167Z,101640.06
2022-12-18T11:34:30.275Z,101644.91
2022-12-18T11:39:39.602Z,101635.97
2022-12-18T11:44:49.535Z,101630.56
2022-12-18T11:49:53.272Z,101632.72
2022-12-18T11:55:01.819Z,101617.25
2022-12-18T12:00:13.216Z,101613.75
2022-12-18T12:05:30.735Z,101609.97
2022-12-18T12:10:46.156Z,101607.09
2022-12-18T12:16:01.368Z,101602.88
2022-12-18T12:21:10.092Z,101589.84
2022-12-18T12:26:23.422Z,101578.59
2022-12-18T12:31:40.363Z,101560.88
2022-12-18T12:36:54.598Z,101560.97
2022-12-18T12:42:17.245Z,101576.44
2022-12-18T12:47:26.139Z,101573.88
2022-12-18T12:52:34.434Z,101576.81
2022-12-18T12:57:42.037Z,101584.81
2022-12-18T13:02:53.355Z,101570.88
2022-12-18T13:08:04.676Z,101558.59
2022-12-18T13:13:13.422Z,101548.94
2022-12-18T13:18:23.527Z,101543.78
2022-12-18T13:23:40.994Z,101532.31
2022-12-18T13:28:56.174Z,101528.59
2022-12-18T13:34:26.089Z,101517.34
2022-12-18T13:39:35.950Z,101494.56
2022-12-18T13:44:43.067Z,101490.13
2022-12-18T13:49:46.437Z,101481.31
2022-12-18T13:54:54.496Z,101484.84
2022-12-18T14:00:18.189Z,101485.47
2022-12-18T14:05:24.687Z,101477.81
2022-12-18T14:10:48.699Z,101471.50
2022-12-18T14:15:52.712Z,101484.00
2022-12-18T14:21:00.995Z,101469.91
2022-12-18T14:26:06.409Z,101475.00
2022-12-18T14:31:20.404Z,101481.19
2022-12-18T14:36:25.668Z,101459.28
2022-12-18T14:41:29.759Z,101475.28
2022-12-18T14:46:37.725Z,101464.00
2022-12-18T14:51:40.694Z,101457.66
2022-12-18T14:56:47.006Z,101449.78
2022-12-18T15:01:59.147Z,101446.28
2022-12-18T15:07:13.434Z,101442.63
2022-12-18T15:12:27.949Z,101452.34
2022-12-18T15:17:32.274Z,101433.16
2022-12-18T15:22:37.492Z,101435.72
2022-12-18T15:27:40.463Z,101432.16
2022-12-18T15:32:48.664Z,101413.63
2022-12-18T15:37:52.955Z,101412.97
2022-12-18T15:43:15.022Z,101409.22
2022-12-18T15:48:24.048Z,101394.19
2022-12-18T15:53:30.025Z,101387.47
2022-12-18T15:58:33.776Z,101365.41
2022-12-18T16:03:38.628Z,101373.91
2022-12-18T16:08:43.009Z,101385.28
2022-12-18T16:13:45.790Z,101369.63
2022-12-18T16:18:50.195Z,101357.56
2022-12-18T16:23:53.005Z,101335.38
2022-12-18T16:28:56.432Z,101342.28
2022-12-18T16:34:20.336Z,101336.44
2022-12-18T16:39:25.510Z,101331.09
2022-12-18T16:44:29.542Z,101327.41
2022-12-18T16:49:33.854Z,101330.00
2022-12-18T16:54:36.908Z,101311.88
2022-12-18T16:59:39.750Z,101311.69
2022-12-18T17:04:45.246Z,101298.69
2022-12-18T17:09:48.833Z,101284.78
2022-12-18T17:14:51.866Z,101284.34
2022-12-18T17:19:56.723Z,101283.81
2022-12-18T17:24:59.589Z,101299.97
2022-12-18T17:30:02.505Z,101258.19
2022-12-18T17:35:07.580Z,101261.75
2022-12-18T17:40:12.088Z,101258.91
2022-12-18T17:45:15.075Z,101246.59
2022-12-18T17:50:19.482Z,101249.34
2022-12-18T17:55:22.306Z,101242.69
2022-12-18T18:00:25.384Z,101238.56
2022-12-18T18:05:29.699Z,101237.78
2022-12-18T18:10:33.281Z,101241.81
2022-12-18T18:15:40.639Z,101221.75
2022-12-18T18:20:45.140Z,101220.00
2022-12-18T18:25:52.253Z,101203.75
2022-12-18T18:30:56.444Z,101223.66
2022-12-18T18:36:00.920Z,101239.38
2022-12-18T18:41:05.193Z,101224.47
2022-12-18T18:46:08.267Z,101226.47
2022-12-18T18:51:14.680Z,101231.50
2022-12-18T19:01:50.464Z,101214.41
2022-12-18T19:06:54.817Z,101235.75
2022-12-18T19:12:16.598Z,101215.47
2022-12-18T19:17:20.489Z,101237.34
2022-12-18T19:22:26.985Z,101244.66
2022-12-18T19:27:29.818Z,101244.69
2022-12-18T19:32:32.856Z,101242.94
2022-12-18T19:37:37.085Z,101232.63
2022-12-18T19:42:39.899Z,101238.56
2022-12-18T19:47:42.702Z,101237.66
2022-12-18T19:52:46.948Z,101250.81
2022-12-18T19:57:49.917Z,101245.47
2022-12-18T20:02:54.296Z,101237.09
2022-12-18T20:08:02.661Z,101246.66
2022-12-18T20:13:06.458Z,101254.94
2022-12-18T20:18:10.260Z,101246.47
2022-12-18T20:23:14.588Z,101231.13
2022-12-18T20:28:17.430Z,101236.91
2022-12-18T20:33:20.238Z,101231.53
2022-12-18T20:38:24.416Z,101230.44
2022-12-18T20:43:27.637Z,101233.19
2022-12-18T20:48:31.450Z,101238.19
2022-12-18T20:53:36.698Z,101233.88
2022-12-18T20:58:41.569Z,101234.72
2022-12-18T21:03:45.973Z,101228.81
2022-12-18T21:08:50.615Z,101233.81
2022-12-18T21:13:53.491Z,101227.03
2022-12-18T21:18:56.565Z,101221.03
2022-12-18T21:24:01.945Z,101210.38
2022-12-18T21:29:06.482Z,101215.50
2022-12-18T21:34:11.613Z,101203.28
2022-12-18T21:39:16.824Z,101203.25
2022-12-18T21:44:20.324Z,101209.47
2022-12-18T21:49:24.266Z,101201.22
2022-12-18T21:54:30.410Z,101194.09
2022-12-18T21:59:36.107Z,101195.50
2022-12-18T22:04:38.921Z,101189.78
2022-12-18T22:09:43.934Z,101192.38
2022-12-18T22:14:46.809Z,101194.25
2022-12-18T22:19:50.427Z,101189.72
2022-12-18T22:24:55.125Z,101179.13
2022-12-18T22:30:07.085Z,101192.59
2022-12-18T22:35:15.584Z,101181.56
2022-12-18T22:40:28.547Z,101176.19
2022-12-18T22:45:31.596Z,101167.34
2022-12-18T22:50:36.601Z,101160.47
2022-12-18T22:55:40.859Z,101147.38
2022-12-18T23:00:43.718Z,101153.56
2022-12-18T23:05:47.777Z,101149.78
2022-12-18T23:10:54.494Z,101151.66
2022-12-18T23:15:57.435Z,101153.47
2022-12-18T23:21:05.549Z,101148.13
2022-12-18T23:26:12.117Z,101145.28
2022-12-18T23:31:16.961Z,101138.50
2022-12-18T23:36:21.080Z,101134.06
2022-12-18T23:41:27.266Z,101130.34
2022-12-18T23:46:32.222Z,101117.00
2022-12-18T23:51:38.247Z,101107.97
2022-12-18T23:56:43.885Z,101100.13
